createdAt,value
2022-09-17T00:01:52.221Z,5.10
2022-09-17T00:04:19.243Z,4.47
2022-09-17T00:06:45.962Z,4.43
2022-09-17T00:09:16.125Z,4.80
2022-09-17T00:11:44.096Z,4.20
2022-09-17T00:14:16.661Z,4.40
2022-09-17T00:16:46.489Z,4.87
2022-09-17T00:19:16.966Z,4.43
2022-09-17T00:21:43.913Z,4.77
2022-09-17T00:24:15.860Z,5.17
2022-09-17T00:26:50.136Z,5.50
2022-09-17T00:29:22.626Z,5.00
2022-09-17T00:31:51.862Z,5.10
2022-09-17T00:34:18.631Z,5.27
2022-09-17T00:36:45.656Z,5.50
2022-09-17T00:39:15.530Z,5.13
2022-09-17T00:41:43.918Z,5.57
2022-09-17T00:44:50.748Z,5.07
2022-09-17T00:47:23.631Z,5.30
2022-09-17T00:49:56.014Z,5.43
2022-09-17T00:55:30.221Z,5.27
2022-09-17T00:57:59.368Z,4.90
2022-09-17T01:00:31.172Z,4.93
2022-09-17T01:02:58.961Z,4.90
2022-09-17T01:05:46.050Z,4.87
2022-09-17T01:08:40.612Z,5.30
2022-09-17T01:11:23.868Z,4.70
2022-09-17T01:14:06.123Z,4.80
2022-09-17T01:16:47.185Z,6.20
2022-09-17T01:19:35.925Z,5.20
2022-09-17T01:22:11.700Z,5.17
2022-09-17T01:25:00.035Z,5.33
2022-09-17T01:27:45.692Z,5.10
2022-09-17T01:30:39.364Z,5.43
2022-09-17T01:33:34.073Z,5.53
2022-09-17T01:36:13.273Z,5.13
2022-09-17T01:39:14.650Z,5.47
2022-09-17T01:42:06.759Z,6.17
2022-09-17T01:45:01.184Z,5.93
2022-09-17T01:47:59.329Z,5.30
2022-09-17T01:50:31.611Z,5.57
2022-09-17T01:52:59.830Z,6.23
2022-09-17T01:55:32.618Z,4.97
2022-09-17T01:58:07.495Z,5.80
2022-09-17T02:00:35.415Z,6.13
2022-09-17T02:03:20.849Z,5.60
2022-09-17T02:05:56.826Z,5.83
2022-09-17T02:08:41.299Z,5.90
2022-09-17T02:11:10.758Z,5.83
2022-09-17T02:13:52.649Z,5.67
2022-09-17T02:16:34.442Z,5.53
2022-09-17T02:19:19.439Z,6.07
2022-09-17T02:22:01.717Z,4.93
2022-09-17T02:24:57.490Z,5.77
2022-09-17T02:27:50.388Z,5.53
2022-09-17T02:30:20.242Z,5.17
2022-09-17T02:32:47.053Z,5.17
2022-09-17T02:35:15.436Z,5.07
2022-09-17T02:37:43.532Z,5.17
2022-09-17T02:40:13.528Z,4.97
2022-09-17T02:43:12.132Z,5.27
2022-09-17T02:46:02.911Z,5.20
2022-09-17T02:48:59.943Z,5.13
2022-09-17T02:52:05.262Z,5.50
2022-09-17T02:54:43.892Z,5.13
2022-09-17T02:57:29.177Z,4.83
2022-09-17T03:00:14.497Z,5.70
2022-09-17T03:02:51.263Z,4.60
2022-09-17T03:05:20.047Z,5.20
2022-09-17T03:07:46.739Z,5.60
2022-09-17T03:10:18.556Z,4.77
2022-09-17T03:12:45.733Z,5.20
2022-09-17T03:15:12.412Z,5.23
2022-09-17T03:17:39.193Z,5.57
2022-09-17T03:20:06.772Z,5.67
2022-09-17T03:22:33.452Z,5.63
2022-09-17T03:25:00.161Z,4.87
2022-09-17T03:27:27.382Z,4.97
2022-09-17T03:29:54.512Z,3.73
2022-09-17T03:32:23.733Z,4.20
2022-09-17T03:34:54.831Z,3.90
2022-09-17T03:37:22.434Z,3.13
2022-09-17T03:39:52.053Z,3.50
2022-09-17T03:42:22.208Z,2.90
2022-09-17T03:44:48.872Z,3.03
2022-09-17T03:47:18.980Z,2.93
2022-09-17T03:49:46.073Z,3.27
2022-09-17T03:52:12.825Z,2.70
2022-09-17T03:54:46.707Z,3.07
2022-09-17T03:57:17.368Z,3.00
2022-09-17T03:59:44.433Z,3.30
2022-09-17T04:02:14.331Z,4.80
2022-09-17T04:04:41.056Z,5.23
2022-09-17T04:07:11.328Z,5.40
2022-09-17T04:09:43.890Z,5.30
2022-09-17T04:12:11.033Z,6.07
2022-09-17T04:14:38.126Z,6.10
2022-09-17T04:17:05.238Z,5.20
2022-09-17T04:19:34.523Z,4.17
2022-09-17T04:22:01.248Z,4.67
2022-09-17T04:24:27.954Z,5.67
2022-09-17T04:26:55.100Z,4.50
2022-09-17T04:29:27.027Z,4.80
2022-09-17T04:31:56.308Z,5.10
2022-09-17T04:34:23.077Z,5.60
2022-09-17T04:36:50.157Z,6.17
2022-09-17T04:39:17.327Z,5.63
2022-09-17T04:41:44.433Z,5.33
2022-09-17T04:44:11.681Z,5.13
2022-09-17T04:46:40.735Z,5.43
2022-09-17T04:49:11.595Z,4.27
2022-09-17T04:51:38.313Z,4.97
2022-09-17T04:54:06.049Z,5.00
2022-09-17T04:56:32.729Z,4.63
2022-09-17T04:58:59.407Z,4.27
2022-09-17T05:01:26.528Z,4.00
2022-09-17T05:03:53.211Z,3.83
2022-09-17T05:06:22.520Z,3.97
2022-09-17T05:08:52.296Z,4.00
2022-09-17T05:11:19.375Z,3.60
2022-09-17T05:13:46.081Z,3.40
2022-09-17T05:16:12.972Z,2.97
2022-09-17T05:18:40.142Z,2.93
2022-09-17T05:21:09.988Z,2.50
2022-09-17T05:23:42.954Z,2.30
2022-09-17T05:26:09.971Z,2.20
2022-09-17T05:28:37.149Z,2.67
2022-09-17T05:31:04.387Z,2.30
2022-09-17T05:33:34.845Z,2.20
2022-09-17T05:36:05.017Z,1.90
2022-09-17T05:38:31.757Z,2.20
2022-09-17T05:40:58.882Z,2.20
2022-09-17T05:43:28.631Z,2.20
2022-09-17T05:45:55.891Z,2.30
2022-09-17T05:48:26.201Z,2.17
2022-09-17T05:50:55.258Z,2.27
2022-09-17T05:53:22.384Z,1.93
2022-09-17T05:55:56.823Z,2.20
2022-09-17T05:58:26.729Z,1.93
2022-09-17T06:00:53.447Z,2.10
2022-09-17T06:03:23.076Z,1.80
2022-09-17T06:06:08.266Z,1.60
2022-09-17T06:08:38.202Z,1.90
2022-09-17T06:11:06.988Z,1.57
2022-09-17T06:13:34.421Z,1.80
2022-09-17T06:16:02.184Z,1.60
2022-09-17T06:18:31.350Z,1.40
2022-09-17T06:21:01.053Z,1.40
2022-09-17T06:23:28.670Z,1.40
2022-09-17T06:26:02.638Z,1.30
2022-09-17T06:28:35.800Z,1.27
2022-09-17T06:31:07.069Z,1.50
2022-09-17T06:33:34.458Z,1.43
2022-09-17T06:36:03.626Z,1.30
2022-09-17T06:38:32.336Z,1.50
2022-09-17T06:40:59.853Z,1.20
2022-09-17T06:43:27.213Z,1.60
2022-09-17T06:45:57.925Z,1.27
2022-09-17T06:48:27.533Z,1.30
2022-09-17T06:50:57.489Z,1.20
2022-09-17T06:53:24.768Z,1.17
2022-09-17T06:55:58.889Z,1.10
2022-09-17T06:58:30.338Z,1.10
2022-09-17T07:01:02.808Z,1.00
2022-09-17T07:03:35.878Z,1.00
2022-09-17T07:06:03.118Z,1.30
2022-09-17T07:08:34.595Z,1.40
2022-09-17T07:11:01.874Z,1.23
2022-09-17T07:13:35.900Z,1.00
2022-09-17T07:16:07.942Z,1.40
2022-09-17T07:18:34.712Z,1.23
2022-09-17T07:21:04.240Z,1.30
2022-09-17T07:23:38.942Z,1.47
2022-09-17T07:26:09.050Z,1.30
2022-09-17T07:28:40.420Z,1.20
2022-09-17T07:31:11.218Z,1.50
2022-09-17T07:33:44.926Z,1.70
2022-09-17T07:36:15.541Z,2.07
2022-09-17T07:38:42.188Z,2.30
2022-09-17T07:41:14.761Z,1.90
2022-09-17T07:43:43.029Z,1.90
2022-09-17T07:46:20.428Z,1.80
2022-09-17T07:48:48.958Z,1.93
2022-09-17T07:51:21.965Z,1.50
2022-09-17T07:53:58.579Z,1.80
2022-09-17T07:56:27.107Z,2.47
2022-09-17T07:58:57.808Z,3.50
2022-09-17T08:01:24.798Z,1.70
2022-09-17T08:04:00.293Z,1.40
2022-09-17T08:06:30.840Z,1.17
2022-09-17T08:09:02.768Z,1.00
2022-09-17T08:11:54.562Z,1.20
2022-09-17T08:14:18.442Z,1.07
2022-09-17T08:16:52.151Z,0.87
2022-09-17T08:19:22.294Z,1.00
2022-09-17T08:21:51.656Z,0.83
2022-09-17T08:24:18.778Z,1.30
2022-09-17T08:26:48.101Z,0.90
2022-09-17T08:29:17.780Z,0.90
2022-09-17T08:31:44.892Z,0.80
2022-09-17T08:34:11.958Z,0.90
2022-09-17T08:36:41.804Z,0.90
2022-09-17T08:39:10.462Z,0.90
2022-09-17T08:41:50.103Z,1.03
2022-09-17T08:44:32.555Z,1.10
2022-09-17T08:47:22.789Z,2.20
2022-09-17T08:50:03.160Z,1.40
2022-09-17T08:52:55.272Z,1.80
2022-09-17T08:55:34.855Z,2.03
2022-09-17T08:58:39.771Z,1.80
2022-09-17T09:01:35.167Z,2.23
2022-09-17T09:04:32.395Z,1.90
2022-09-17T09:07:13.979Z,2.33
2022-09-17T09:09:51.759Z,2.17
2022-09-17T09:12:25.625Z,2.17
2022-09-17T09:15:02.878Z,2.00
2022-09-17T09:17:36.922Z,2.40
2022-09-17T09:20:05.743Z,2.40
2022-09-17T09:22:50.974Z,2.50
2022-09-17T09:25:18.000Z,2.60
2022-09-17T09:28:12.383Z,2.23
2022-09-17T09:31:05.751Z,1.70
2022-09-17T09:33:47.559Z,1.60
2022-09-17T09:36:22.195Z,1.43
2022-09-17T09:39:40.299Z,1.60
2022-09-17T09:42:23.418Z,1.30
2022-09-17T09:44:50.205Z,1.50
2022-09-17T09:47:34.396Z,1.90
2022-09-17T09:50:22.545Z,1.63
2022-09-17T09:53:18.530Z,1.47
2022-09-17T09:56:29.678Z,1.97
2022-09-17T09:58:56.575Z,1.70
2022-09-17T10:01:27.219Z,1.60
2022-09-17T10:03:58.926Z,1.90
2022-09-17T10:06:33.257Z,2.30
2022-09-17T10:09:00.298Z,1.73
2022-09-17T10:11:40.629Z,2.00
2022-09-17T10:14:26.405Z,2.00
2022-09-17T10:17:13.398Z,2.50
2022-09-17T10:19:41.098Z,2.27
2022-09-17T10:22:24.866Z,2.07
2022-09-17T10:24:54.737Z,2.50
2022-09-17T10:27:23.745Z,2.57
2022-09-17T10:30:15.902Z,2.77
2022-09-17T10:33:17.529Z,3.10
2022-09-17T10:36:09.189Z,2.97
2022-09-17T10:38:48.505Z,2.90
2022-09-17T10:41:34.254Z,2.70
2022-09-17T10:44:17.934Z,2.23
2022-09-17T10:46:44.815Z,2.50
2022-09-17T10:49:22.186Z,2.33
2022-09-17T10:51:48.970Z,3.10
2022-09-17T10:54:45.002Z,2.67
2022-09-17T10:57:24.606Z,2.53
2022-09-17T11:00:03.425Z,2.53
2022-09-17T11:03:01.522Z,2.13
2022-09-17T11:06:03.741Z,2.40
2022-09-17T11:08:39.575Z,2.73
2022-09-17T11:11:30.777Z,2.50
2022-09-17T11:14:39.297Z,3.33
2022-09-17T11:17:35.377Z,3.40
2022-09-17T11:20:09.509Z,3.20
2022-09-17T11:23:04.651Z,3.00
2022-09-17T11:25:57.170Z,2.80
2022-09-17T11:29:10.913Z,2.60
2022-09-17T11:31:48.026Z,2.77
2022-09-17T11:34:32.389Z,2.30
2022-09-17T11:37:03.349Z,2.00
2022-09-17T11:39:50.033Z,2.43
2022-09-17T11:42:25.506Z,2.17
2022-09-17T11:44:59.271Z,1.87
2022-09-17T11:47:47.065Z,2.27
2022-09-17T11:50:29.693Z,2.20
2022-09-17T11:53:17.714Z,2.33
2022-09-17T11:55:55.211Z,2.40
2022-09-17T11:58:26.962Z,2.17
2022-09-17T12:01:04.077Z,2.43
2022-09-17T12:03:38.553Z,2.33
2022-09-17T12:06:14.701Z,2.70
2022-09-17T12:08:47.637Z,2.27
2022-09-17T12:11:29.686Z,2.40
2022-09-17T12:14:02.987Z,2.10
2022-09-17T12:16:43.579Z,2.40
2022-09-17T12:19:46.601Z,3.20
2022-09-17T12:22:26.446Z,3.40
2022-09-17T12:24:54.667Z,2.30
2022-09-17T12:27:35.449Z,2.40
2022-09-17T12:30:22.934Z,2.37
2022-09-17T12:33:21.039Z,1.93
2022-09-17T12:36:06.032Z,1.80
2022-09-17T12:39:03.146Z,1.80
2022-09-17T12:42:13.355Z,1.70
2022-09-17T12:45:14.109Z,2.20
2022-09-17T12:47:54.677Z,2.17
2022-09-17T12:50:48.290Z,1.90
2022-09-17T12:53:23.204Z,2.10
2022-09-17T12:56:13.985Z,1.70
2022-09-17T12:59:02.743Z,9.57
2022-09-17T13:02:02.387Z,3.20
2022-09-17T13:05:05.461Z,1.57
2022-09-17T13:07:57.230Z,1.27
2022-09-17T13:10:41.201Z,1.20
2022-09-17T13:13:24.504Z,1.50
2022-09-17T13:16:13.395Z,1.10
2022-09-17T13:21:57.006Z,1.43
2022-09-17T13:24:34.531Z,1.93
2022-09-17T13:27:03.590Z,1.43
2022-09-17T13:29:46.092Z,1.80
2022-09-17T13:32:35.152Z,2.00
2022-09-17T13:35:16.830Z,1.40
2022-09-17T13:37:54.985Z,1.80
2022-09-17T13:40:34.551Z,1.90
2022-09-17T13:43:04.303Z,1.93
2022-09-17T13:45:34.005Z,1.67
2022-09-17T13:48:10.880Z,1.80
2022-09-17T13:50:45.062Z,1.47
2022-09-17T13:53:14.937Z,2.40
2022-09-17T13:55:52.127Z,1.70
2022-09-17T13:58:18.842Z,2.00
2022-09-17T14:00:48.782Z,1.87
2022-09-17T14:03:34.493Z,2.13
2022-09-17T14:06:18.055Z,1.97
2022-09-17T14:08:44.992Z,1.90
2022-09-17T14:11:36.591Z,2.23
2022-09-17T14:14:04.180Z,1.90
2022-09-17T14:16:51.097Z,1.53
2022-09-17T14:19:51.060Z,1.73
2022-09-17T14:22:27.043Z,1.80
2022-09-17T14:24:54.687Z,1.90
2022-09-17T14:27:58.400Z,1.83
2022-09-17T14:30:33.507Z,1.50
2022-09-17T14:33:03.196Z,1.90
2022-09-17T14:35:46.446Z,2.43
2022-09-17T14:38:35.434Z,1.90
2022-09-17T14:41:27.081Z,1.60
2022-09-17T14:44:19.133Z,1.70
2022-09-17T14:47:15.767Z,1.90
2022-09-17T14:49:43.333Z,1.90
2022-09-17T14:52:39.979Z,1.80
2022-09-17T14:55:22.497Z,1.70
2022-09-17T14:57:56.447Z,1.53
2022-09-17T15:00:31.516Z,1.93
2022-09-17T15:03:01.771Z,2.40
2022-09-17T15:05:40.260Z,2.60
2022-09-17T15:08:10.013Z,2.90
2022-09-17T15:10:55.070Z,2.53
2022-09-17T15:13:38.394Z,2.33
2022-09-17T15:16:16.980Z,1.30
2022-09-17T15:18:52.680Z,1.57
2022-09-17T15:21:39.517Z,1.40
2022-09-17T15:24:38.630Z,1.70
2022-09-17T15:27:37.203Z,1.50
2022-09-17T15:30:22.459Z,1.47
2022-09-17T15:32:57.617Z,1.73
2022-09-17T15:35:24.405Z,1.77
2022-09-17T15:38:23.195Z,1.30
2022-09-17T15:40:51.742Z,1.10
2022-09-17T15:43:36.539Z,1.80
2022-09-17T15:46:34.154Z,1.70
2022-09-17T15:49:02.577Z,1.50
2022-09-17T15:51:31.852Z,1.90
2022-09-17T15:54:19.935Z,2.67
2022-09-17T15:56:55.412Z,1.50
2022-09-17T15:59:28.508Z,1.87
2022-09-17T16:02:05.862Z,2.13
2022-09-17T16:04:33.921Z,2.40
2022-09-17T16:07:12.766Z,2.10
2022-09-17T16:09:45.120Z,1.80
2022-09-17T16:12:23.377Z,2.60
2022-09-17T16:14:52.763Z,1.60
2022-09-17T16:17:44.128Z,1.90
2022-09-17T16:20:25.416Z,2.47
2022-09-17T16:22:56.311Z,2.10
2022-09-17T16:25:27.677Z,2.17
2022-09-17T16:27:58.952Z,2.77
2022-09-17T16:30:25.999Z,2.70
2022-09-17T16:32:55.781Z,3.30
2022-09-17T16:35:24.638Z,3.10
2022-09-17T16:37:52.967Z,2.90
2022-09-17T16:40:21.655Z,2.03
2022-09-17T16:42:51.532Z,3.33
2022-09-17T16:45:23.411Z,1.87
2022-09-17T16:47:58.545Z,2.20
2022-09-17T16:50:25.530Z,3.83
2022-09-17T16:52:54.366Z,5.53
2022-09-17T16:55:21.872Z,4.90
2022-09-17T16:57:52.020Z,3.30
2022-09-17T17:00:21.330Z,2.90
2022-09-17T17:02:56.914Z,2.67
2022-09-17T17:05:25.695Z,3.03
2022-09-17T17:07:53.047Z,2.60
2022-09-17T17:10:20.289Z,2.37
2022-09-17T17:12:47.036Z,2.20
2022-09-17T17:15:14.068Z,2.17
2022-09-17T17:17:40.746Z,2.47
2022-09-17T17:20:09.789Z,2.20
2022-09-17T17:22:41.211Z,2.53
2022-09-17T17:25:08.326Z,3.00
2022-09-17T17:27:35.485Z,3.03
2022-09-17T17:30:04.733Z,3.03
2022-09-17T17:32:31.628Z,2.20
2022-09-17T17:34:58.318Z,2.27
2022-09-17T17:37:26.283Z,2.10
2022-09-17T17:39:54.135Z,2.23
2022-09-17T17:42:21.748Z,2.40
2022-09-17T17:44:48.453Z,3.03
2022-09-17T17:47:15.118Z,2.60
2022-09-17T17:49:42.228Z,2.43
2022-09-17T17:52:08.982Z,2.73
2022-09-17T17:54:35.824Z,1.90
2022-09-17T17:57:11.439Z,1.80
2022-09-17T17:59:38.184Z,1.93
2022-09-17T18:02:07.621Z,1.80
2022-09-17T18:04:34.673Z,1.80
2022-09-17T18:07:13.639Z,1.77
2022-09-17T18:09:40.587Z,1.77
2022-09-17T18:12:10.308Z,1.70
2022-09-17T18:14:40.275Z,1.60
2022-09-17T18:17:06.924Z,1.70
2022-09-17T18:19:36.757Z,1.60
2022-09-17T18:22:06.416Z,2.00
2022-09-17T18:24:33.188Z,1.67
2022-09-17T18:26:59.853Z,1.87
2022-09-17T18:29:28.682Z,2.00
2022-09-17T18:31:55.694Z,2.47
2022-09-17T18:34:25.057Z,1.80
2022-09-17T18:36:52.578Z,2.00
2022-09-17T18:39:56.799Z,1.87
2022-09-17T18:42:08.247Z,1.70
2022-09-17T18:44:35.073Z,1.77
2022-09-17T18:47:04.872Z,2.07
2022-09-17T18:49:31.609Z,2.00
2022-09-17T18:52:00.509Z,1.90
2022-09-17T18:57:08.004Z,2.00
2022-09-17T18:59:34.974Z,2.00
2022-09-17T19:02:01.896Z,2.30
2022-09-17T19:04:29.447Z,2.30
2022-09-17T19:06:56.256Z,1.87
2022-09-17T19:09:25.073Z,2.00
2022-09-17T19:11:51.790Z,2.07
2022-09-17T19:14:18.792Z,2.30
2022-09-17T19:16:45.530Z,2.03
2022-09-17T19:19:12.278Z,2.10
2022-09-17T19:21:39.203Z,2.10
2022-09-17T19:24:06.369Z,2.17
2022-09-17T19:26:33.097Z,2.33
2022-09-17T19:29:02.626Z,2.33
2022-09-17T19:31:29.643Z,2.30
2022-09-17T19:34:00.574Z,1.80
2022-09-17T19:36:27.368Z,2.13
2022-09-17T19:38:54.865Z,2.23
2022-09-17T19:41:25.645Z,1.90
2022-09-17T19:43:53.444Z,2.17
2022-09-17T19:46:22.786Z,2.00
2022-09-17T19:48:51.908Z,2.57
2022-09-17T19:51:21.685Z,2.23
2022-09-17T19:53:48.701Z,2.13
2022-09-17T19:56:21.232Z,2.77
2022-09-17T19:58:48.431Z,2.07
2022-09-17T20:01:15.970Z,2.60
2022-09-17T20:03:53.496Z,2.70
2022-09-17T20:06:24.046Z,2.20
2022-09-17T20:08:55.143Z,1.97
2022-09-17T20:11:25.945Z,1.90
2022-09-17T20:14:06.678Z,2.17
2022-09-17T20:16:35.812Z,2.30
2022-09-17T20:19:03.177Z,2.40
2022-09-17T20:21:31.367Z,2.20
2022-09-17T20:23:59.002Z,2.20
2022-09-17T20:26:27.208Z,2.20
2022-09-17T20:28:55.068Z,2.40
2022-09-17T20:31:29.635Z,1.90
2022-09-17T20:33:59.189Z,2.07
2022-09-17T20:36:30.646Z,2.30
2022-09-17T20:39:21.964Z,1.97
2022-09-17T20:41:48.249Z,1.93
2022-09-17T20:44:15.086Z,1.93
2022-09-17T20:46:41.917Z,2.20
2022-09-17T20:49:09.074Z,2.50
2022-09-17T20:51:35.843Z,2.10
2022-09-17T20:54:06.031Z,2.00
2022-09-17T20:56:36.207Z,2.03
2022-09-17T20:59:15.608Z,1.83
2022-09-17T21:01:47.526Z,1.90
2022-09-17T21:04:22.113Z,1.80
2022-09-17T21:06:53.121Z,2.00
2022-09-17T21:09:23.970Z,2.30
2022-09-17T21:11:50.715Z,1.70
2022-09-17T21:14:18.414Z,2.30
2022-09-17T21:16:45.974Z,2.10
2022-09-17T21:19:14.826Z,2.03
2022-09-17T21:21:45.158Z,1.80
2022-09-17T21:24:12.351Z,2.10
2022-09-17T21:26:42.513Z,1.77
2022-09-17T21:29:12.638Z,1.90
2022-09-17T21:31:42.468Z,1.73
2022-09-17T21:34:12.419Z,1.70
2022-09-17T21:36:44.585Z,1.60
2022-09-17T21:39:14.900Z,1.90
2022-09-17T21:41:43.135Z,1.77
2022-09-17T21:44:14.276Z,1.63
2022-09-17T21:46:44.110Z,1.73
2022-09-17T21:49:13.622Z,1.77
2022-09-17T21:51:42.383Z,2.00
2022-09-17T21:54:12.469Z,1.90
2022-09-17T21:56:42.722Z,1.50
2022-09-17T21:59:12.601Z,1.73
2022-09-17T22:01:42.280Z,1.50
2022-09-17T22:04:15.147Z,1.50
2022-09-17T22:06:46.092Z,1.60
2022-09-17T22:09:16.454Z,1.53
2022-09-17T22:11:43.671Z,1.60
2022-09-17T22:14:32.540Z,2.07
2022-09-17T22:16:59.777Z,1.50
2022-09-17T22:19:29.416Z,1.50
2022-09-17T22:21:56.720Z,1.43
2022-09-17T22:24:24.621Z,1.43
2022-09-17T22:26:58.062Z,1.53
2022-09-17T22:29:29.681Z,1.60
2022-09-17T22:32:01.495Z,1.57
2022-09-17T22:34:31.505Z,1.47
2022-09-17T22:36:59.036Z,1.50
2022-09-17T22:39:26.202Z,1.80
2022-09-17T22:41:52.934Z,2.20
2022-09-17T22:44:20.547Z,1.80
2022-09-17T22:46:50.128Z,1.80
2022-09-17T22:49:17.684Z,1.53
2022-09-17T22:51:45.156Z,1.90
2022-09-17T22:54:13.553Z,1.83
2022-09-17T22:56:40.571Z,1.37
2022-09-17T22:59:07.569Z,1.90
2022-09-17T23:01:36.680Z,1.83
2022-09-17T23:04:05.054Z,2.10
2022-09-17T23:06:45.038Z,1.50
2022-09-17T23:09:13.813Z,1.60
2022-09-17T23:11:41.388Z,1.80
2022-09-17T23:14:12.294Z,1.90
2022-09-17T23:16:45.573Z,1.83
2022-09-17T23:19:13.494Z,1.87
2022-09-17T23:21:41.008Z,1.63
2022-09-17T23:24:23.592Z,2.00
2022-09-17T23:26:50.588Z,1.60
2022-09-17T23:29:17.340Z,1.63
2022-09-17T23:31:47.724Z,1.60
2022-09-17T23:34:14.426Z,1.90
2022-09-17T23:36:41.408Z,1.63
2022-09-17T23:39:12.838Z,1.70
2022-09-17T23:41:43.667Z,1.77
2022-09-17T23:44:15.253Z,1.73
2022-09-17T23:46:45.243Z,1.80
2022-09-17T23:49:13.905Z,1.70
2022-09-17T23:51:40.948Z,1.83
2022-09-17T23:54:07.921Z,2.03
2022-09-17T23:56:35.164Z,1.90
2022-09-17T23:59:09.964Z,1.70
